Time;durP1;ratioP1;P1;durP2;ratioP2;P2;SDS_P1;SDS_P2;PMS_P1;PMS_P2;Temp;Humidity;BMP_temperature;BMP_pressure;BME280_temperature;BME280_humidity;BME280_pressure;Samples;Min_cycle;Max_cycle;Signal;HPM_P1;HPM_P2
2021/06/13 00:01:54;;;;;;;6.93;4.88;;;;;;;18.87;63.42;102006.41;4841104;29;20054;-74
2021/06/13 00:04:22;;;;;;;7.00;4.57;;;;;;;19.07;63.01;102006.44;4840927;29;20058;-68
2021/06/13 00:06:53;;;;;;;7.43;4.35;;;;;;;19.14;62.84;102000.34;4840374;29;20054;-71
2021/06/13 00:09:20;;;;;;;7.35;4.28;;;;;;;19.10;63.03;102018.91;4840139;29;20414;-70
2021/06/13 00:11:49;;;;;;;6.88;4.88;;;;;;;19.09;63.07;102014.47;4840166;29;20057;-74
2021/06/13 00:14:17;;;;;;;6.72;4.53;;;;;;;18.80;64.34;102006.97;4841818;29;20054;-75
2021/06/13 00:21:13;;;;;;;7.68;4.85;;;;;;;18.93;64.57;102005.88;4840792;29;20473;-66
2021/06/13 00:23:42;;;;;;;7.20;4.85;;;;;;;19.00;64.03;102002.56;4841065;29;20061;-67
2021/06/13 00:26:18;;;;;;;9.77;5.47;;;;;;;18.97;64.14;102003.22;4839887;29;20062;-66
2021/06/13 00:28:46;;;;;;;7.30;4.65;;;;;;;18.97;64.41;101994.84;4840371;29;20058;-68
2021/06/13 00:35:42;;;;;;;6.57;4.55;;;;;;;18.96;64.01;101996.84;4841535;29;20058;-65
2021/06/13 00:38:10;;;;;;;8.15;4.88;;;;;;;18.64;65.42;101997.53;4838980;29;20058;-69
2021/06/13 00:40:38;;;;;;;9.80;5.40;;;;;;;18.66;65.66;101994.38;4839125;29;20050;-67
2021/06/13 00:43:06;;;;;;;6.72;4.60;;;;;;;18.75;65.12;101993.19;4839070;29;20064;-67
2021/06/13 00:50:04;;;;;;;9.15;5.22;;;;;;;18.64;65.44;101989.16;4824744;29;20054;-67
2021/06/13 00:52:32;;;;;;;8.45;5.63;;;;;;;18.45;65.92;101997.13;4840134;29;20053;-66
2021/06/13 00:55:02;;;;;;;9.18;5.13;;;;;;;18.32;66.47;102000.13;4839540;29;20058;-67
2021/06/13 00:57:30;;;;;;;7.95;5.65;;;;;;;18.26;66.53;101993.06;4841174;29;20049;-70
2021/06/13 01:04:24;;;;;;;12.43;5.90;;;;;;;18.20;67.11;101991.63;4839135;29;20046;-67
2021/06/13 01:07:03;;;;;;;10.10;5.22;;;;;;;18.26;66.69;101988.31;4839571;29;20083;-72
2021/06/13 01:09:34;;;;;;;9.07;5.63;;;;;;;18.36;66.39;101985.16;4838724;29;20138;-70
2021/06/13 01:12:06;;;;;;;11.30;5.80;;;;;;;18.01;67.78;101989.22;4839336;29;20406;-71
2021/06/13 01:15:04;;;;;;;10.95;5.63;;;;;;;18.37;66.49;101988.78;4838279;29;20077;-66
2021/06/13 01:21:35;;;;;;;9.48;5.43;;;;;;;18.57;65.93;101996.41;4876914;29;19931;-69
2021/06/13 01:24:16;;;;;;;9.98;5.50;;;;;;;18.60;65.23;101984.59;4846172;29;20072;-74
2021/06/13 01:27:17;;;;;;;11.95;5.85;;;;;;;18.46;65.72;101998.75;4846648;29;20064;-70
2021/06/13 01:29:47;;;;;;;9.40;5.95;;;;;;;18.48;65.16;102004.81;4824299;29;20487;-67
2021/06/13 01:33:18;;;;;;;8.07;5.23;;;;;;;18.32;65.73;102002.91;4810263;29;20054;-70
2021/06/13 01:35:46;;;;;;;10.30;5.38;;;;;;;18.19;66.12;102003.94;4819723;29;20761;-67
2021/06/13 01:38:16;;;;;;;8.55;5.68;;;;;;;18.17;66.30;102011.81;4770853;29;20070;-71
2021/06/13 01:40:44;;;;;;;10.25;5.85;;;;;;;18.32;65.72;102006.53;4771511;29;20067;-67
2021/06/13 01:43:13;;;;;;;11.60;5.75;;;;;;;18.32;65.22;102003.72;4786294;29;20054;-69
2021/06/13 01:50:17;;;;;;;9.57;5.45;;;;;;;18.10;65.51;102019.88;4801816;29;20051;-69
2021/06/13 01:52:47;;;;;;;8.65;5.38;;;;;;;18.11;65.78;102021.50;4800166;29;20458;-67
2021/06/13 01:55:21;;;;;;;9.30;6.13;;;;;;;18.20;65.55;102019.53;4864331;29;20062;-66
2021/06/13 01:57:49;;;;;;;8.75;5.80;;;;;;;17.96;66.10;102009.75;4864568;29;20062;-67
2021/06/13 02:00:36;;;;;;;9.88;5.70;;;;;;;18.23;65.92;102016.88;4800663;29;20187;-65
2021/06/13 02:07:34;;;;;;;9.85;5.30;;;;;;;18.10;65.62;102015.09;4838909;29;20054;-65
2021/06/13 02:10:08;;;;;;;10.52;5.78;;;;;;;18.29;65.00;102023.09;4823291;29;20480;-67
2021/06/13 02:12:40;;;;;;;11.48;5.47;;;;;;;18.43;64.43;102015.38;4837446;29;20062;-67
2021/06/13 02:15:11;;;;;;;8.90;5.57;;;;;;;18.40;64.45;102019.63;4887358;29;20065;-66
2021/06/13 02:22:18;;;;;;;10.20;5.80;;;;;;;18.35;64.54;102027.34;4838302;29;20058;-69
2021/06/13 02:24:47;;;;;;;12.98;5.93;;;;;;;18.32;64.47;102034.41;4838654;29;20061;-71
2021/06/13 02:27:21;;;;;;;10.90;5.70;;;;;;;18.26;64.25;102040.50;4885804;29;20050;-70
2021/06/13 02:29:52;;;;;;;10.38;6.30;;;;;;;18.02;65.09;102032.69;4837624;29;20053;-68
2021/06/13 02:36:50;;;;;;;10.93;5.75;;;;;;;17.95;65.47;102030.41;4822394;29;20058;-71
2021/06/13 02:39:19;;;;;;;9.73;5.50;;;;;;;17.81;65.90;102032.56;4838104;29;20053;-68
2021/06/13 02:41:49;;;;;;;9.18;5.78;;;;;;;17.92;65.20;102044.19;4836726;29;20070;-72
2021/06/13 02:44:20;;;;;;;10.18;5.78;;;;;;;17.92;65.30;102033.84;4822243;29;20406;-73
2021/06/13 02:51:14;;;;;;;9.93;5.60;;;;;;;17.78;65.66;102047.16;4901226;29;20050;-73
2021/06/13 02:53:47;;;;;;;11.40;5.43;;;;;;;17.74;65.68;102040.63;4886426;29;20057;-75
2021/06/13 02:56:57;;;;;;;11.40;5.50;;;;;;;17.81;65.45;102048.47;4838284;29;20054;-70
2021/06/13 02:59:47;;;;;;;9.10;5.82;;;;;;;17.79;65.40;102059.97;4863792;29;20182;-77
2021/06/13 03:02:46;;;;;;;11.32;5.40;;;;;;;17.79;65.14;102057.16;4878841;29;20057;-74
2021/06/13 03:05:18;;;;;;;10.25;5.82;;;;;;;17.84;65.11;102067.31;4878873;29;20501;-67
2021/06/13 03:07:45;;;;;;;11.52;5.72;;;;;;;17.89;65.14;102062.41;4878723;29;20075;-70
2021/06/13 03:10:16;;;;;;;10.63;5.45;;;;;;;18.05;64.33;102071.06;4860503;29;20046;-69
2021/06/13 03:12:46;;;;;;;12.98;5.43;;;;;;;17.85;64.89;102069.78;4860593;29;20065;-69
2021/06/13 03:15:14;;;;;;;11.27;5.85;;;;;;;17.78;65.23;102077.81;4860167;29;20065;-66
2021/06/13 03:17:42;;;;;;;12.90;5.60;;;;;;;17.96;64.74;102075.81;4875470;29;20053;-64
2021/06/13 03:20:11;;;;;;;11.63;5.65;;;;;;;17.94;64.79;102081.72;4859474;29;20176;-67
2021/06/13 03:22:39;;;;;;;9.68;5.55;;;;;;;18.12;64.47;102081.69;4875447;29;20108;-66
2021/06/13 03:25:10;;;;;;;8.70;5.32;;;;;;;18.16;64.28;102083.50;4844905;29;20483;-67
2021/06/13 03:27:42;;;;;;;14.00;6.35;;;;;;;18.10;64.09;102086.81;4876388;29;20529;-66
2021/06/13 03:30:15;;;;;;;15.13;5.90;;;;;;;18.33;63.22;102077.06;4863838;29;20053;-66
2021/06/13 03:32:43;;;;;;;10.68;5.28;;;;;;;18.33;63.21;102074.28;4848178;29;20045;-69
2021/06/13 03:35:14;;;;;;;10.10;5.57;;;;;;;18.37;62.74;102076.09;4839956;29;20059;-69
2021/06/13 03:37:43;;;;;;;9.48;5.60;;;;;;;18.32;62.91;102073.47;4822876;29;20078;-67
2021/06/13 03:40:14;;;;;;;9.60;5.13;;;;;;;18.48;62.04;102068.19;4885994;29;20077;-70
2021/06/13 03:42:42;;;;;;;9.82;5.22;;;;;;;18.35;61.63;102077.56;4885369;29;20051;-66
2021/06/13 03:45:10;;;;;;;16.58;5.35;;;;;;;18.30;61.63;102084.13;4807932;29;20059;-73
2021/06/13 03:47:38;;;;;;;10.73;5.57;;;;;;;18.24;61.75;102076.25;4823803;29;20062;-72
2021/06/13 03:50:06;;;;;;;14.23;5.95;;;;;;;18.06;61.79;102086.66;4885635;29;20061;-72
2021/06/13 03:52:34;;;;;;;11.52;5.90;;;;;;;17.89;62.22;102076.34;4823963;29;20515;-70
2021/06/13 03:55:02;;;;;;;11.00;5.65;;;;;;;17.94;62.05;102078.13;4806432;29;20352;-69
2021/06/13 03:57:30;;;;;;;12.02;5.18;;;;;;;17.99;61.83;102078.78;4822786;29;20057;-72
2021/06/13 03:59:58;;;;;;;11.05;5.40;;;;;;;17.97;61.63;102083.06;4806540;29;20054;-78
2021/06/13 04:02:26;;;;;;;14.50;5.68;;;;;;;17.99;61.32;102092.72;4806476;29;20065;-70
2021/06/13 04:04:54;;;;;;;14.90;5.78;;;;;;;18.07;61.22;102088.28;4806351;29;20065;-68
2021/06/13 04:07:22;;;;;;;9.95;5.60;;;;;;;18.14;60.82;102088.59;4822859;29;20058;-69
2021/06/13 04:09:49;;;;;;;9.60;5.38;;;;;;;18.17;60.98;102092.69;4806777;29;20062;-68
2021/06/13 04:12:18;;;;;;;11.20;5.85;;;;;;;18.24;60.56;102093.81;4840303;29;20474;-71
2021/06/13 04:14:47;;;;;;;10.93;5.07;;;;;;;18.41;60.05;102093.00;4840540;29;20061;-69
2021/06/13 04:17:18;;;;;;;15.00;5.13;;;;;;;18.29;60.63;102109.59;4824583;29;20049;-66
2021/06/13 04:19:46;;;;;;;11.95;6.10;;;;;;;18.40;60.55;102102.47;4825198;29;20069;-67
2021/06/13 04:22:18;;;;;;;13.63;5.63;;;;;;;18.48;60.36;102098.91;4840012;29;20054;-66
2021/06/13 04:24:47;;;;;;;10.60;5.03;;;;;;;18.50;60.08;102108.56;4840778;29;20062;-67
2021/06/13 04:27:18;;;;;;;12.82;5.47;;;;;;;18.17;60.86;102104.66;4840537;29;20544;-70
2021/06/13 04:29:46;;;;;;;13.13;6.03;;;;;;;18.06;61.13;102117.34;4838847;29;20187;-70
2021/06/13 04:36:46;;;;;;;9.30;5.15;;;;;;;18.17;60.54;102117.78;4840605;29;20060;-67
2021/06/13 04:39:13;;;;;;;11.30;5.50;;;;;;;17.80;61.75;102116.53;4839129;29;20057;-68
2021/06/13 04:41:41;;;;;;;13.35;5.68;;;;;;;18.05;61.17;102114.84;4840206;29;20224;-72
2021/06/13 04:44:08;;;;;;;9.82;5.20;;;;;;;18.20;60.62;102117.94;4840220;29;20057;-67
2021/06/13 04:46:36;;;;;;;10.05;4.97;;;;;;;18.02;60.83;102124.72;4840241;29;20058;-67
2021/06/13 04:53:52;;;;;;;11.95;5.07;;;;;;;17.96;60.82;102131.59;4841111;29;20230;-72
2021/06/13 04:56:38;;;;;;;9.25;5.25;;;;;;;17.97;60.91;102134.03;4840410;29;20082;-76
2021/06/13 04:59:05;;;;;;;9.75;5.00;;;;;;;18.12;60.75;102124.38;4840300;29;20050;-71
2021/06/13 05:01:33;;;;;;;11.00;4.78;;;;;;;18.01;60.73;102123.06;4839905;29;20054;-78
2021/06/13 05:04:02;;;;;;;10.18;4.90;;;;;;;18.12;60.55;102121.56;4840099;29;20049;-73
2021/06/13 05:06:29;;;;;;;13.15;5.03;;;;;;;18.06;60.95;102125.69;4840543;29;20057;-70
2021/06/13 05:08:57;;;;;;;10.27;5.20;;;;;;;18.14;60.56;102126.81;4841045;29;20360;-77
2021/06/13 05:11:24;;;;;;;12.48;5.45;;;;;;;18.42;59.71;102126.16;4839404;29;20494;-73
2021/06/13 05:13:52;;;;;;;11.57;5.00;;;;;;;18.46;59.44;102132.69;4838386;29;20059;-76
2021/06/13 05:16:19;;;;;;;12.68;5.10;;;;;;;18.11;59.59;102122.75;4839796;29;20054;-73
2021/06/13 05:18:47;;;;;;;8.43;4.68;;;;;;;18.09;59.84;102127.81;4841179;29;20057;-74
2021/06/13 05:21:14;;;;;;;7.47;4.78;;;;;;;18.11;59.65;102131.09;4839946;29;20053;-73
2021/06/13 05:23:42;;;;;;;13.25;5.55;;;;;;;18.07;59.74;102135.69;4840664;29;20490;-75
2021/06/13 05:26:09;;;;;;;10.88;4.78;;;;;;;17.95;60.00;102135.53;4839889;29;20053;-68
2021/06/13 05:28:37;;;;;;;10.52;4.90;;;;;;;17.83;60.02;102143.75;4900952;29;20054;-73
2021/06/13 05:31:05;;;;;;;13.60;5.05;;;;;;;17.89;59.90;102153.56;4837943;29;20046;-72
2021/06/13 05:33:33;;;;;;;11.13;4.40;;;;;;;18.04;59.46;102147.50;4840279;29;20061;-71
2021/06/13 05:36:01;;;;;;;12.27;4.68;;;;;;;18.18;59.33;102147.31;4839471;29;20049;-74
2021/06/13 05:38:29;;;;;;;10.38;5.47;;;;;;;18.20;59.23;102147.81;4839480;29;20057;-72
2021/06/13 05:40:57;;;;;;;11.52;5.22;;;;;;;18.27;58.58;102151.72;4838311;29;20054;-74
2021/06/13 05:43:24;;;;;;;11.68;4.65;;;;;;;18.21;58.82;102153.06;4840625;29;20459;-71
2021/06/13 05:45:52;;;;;;;10.60;4.85;;;;;;;18.04;59.17;102158.66;4838954;29;20153;-73
2021/06/13 05:48:19;;;;;;;13.13;4.60;;;;;;;18.18;58.93;102152.91;4838188;29;20054;-73
2021/06/13 05:50:47;;;;;;;11.88;4.60;;;;;;;18.31;58.32;102157.47;4838190;29;20053;-71
2021/06/13 05:53:14;;;;;;;11.27;4.72;;;;;;;18.25;58.35;102165.22;4839405;29;20054;-66
2021/06/13 05:55:42;;;;;;;13.00;4.72;;;;;;;18.51;57.32;102162.41;4839294;29;20077;-68
2021/06/13 05:58:09;;;;;;;8.45;4.28;;;;;;;18.39;57.25;102157.47;4838818;29;20057;-73
2021/06/13 06:00:37;;;;;;;8.10;4.40;;;;;;;18.24;56.99;102162.72;4838872;29;20062;-70
2021/06/13 06:03:06;;;;;;;12.18;4.68;;;;;;;18.23;56.63;102167.50;4840144;29;20394;-67
2021/06/13 06:10:00;;;;;;;7.50;4.03;;;;;;;18.37;56.16;102164.53;4838393;29;20064;-68
2021/06/13 06:12:28;;;;;;;9.45;3.83;;;;;;;18.33;55.80;102171.91;4839421;29;20375;-67
2021/06/13 06:14:55;;;;;;;10.77;3.65;;;;;;;18.25;55.91;102178.34;4839913;29;20137;-67
2021/06/13 06:17:23;;;;;;;10.75;4.40;;;;;;;18.33;54.84;102181.09;4839211;29;20056;-69
2021/06/13 06:19:50;;;;;;;8.25;3.53;;;;;;;18.46;54.74;102173.75;4840300;29;20058;-72
2021/06/13 06:22:17;;;;;;;12.40;4.03;;;;;;;18.44;54.25;102168.50;4838741;29;20053;-76
2021/06/13 06:24:45;;;;;;;9.35;4.28;;;;;;;18.43;54.27;102168.84;4839002;29;20053;-70
2021/06/13 06:27:13;;;;;;;8.60;3.58;;;;;;;18.48;54.13;102171.44;4838886;29;20061;-76
2021/06/13 06:29:41;;;;;;;12.85;3.72;;;;;;;18.78;53.74;102175.94;4838728;29;20046;-67
2021/06/13 06:32:08;;;;;;;10.57;3.85;;;;;;;19.00;52.88;102168.13;4838938;29;20375;-68
2021/06/13 06:39:17;;;;;;;10.80;3.40;;;;;;;19.34;51.18;102172.78;4840291;29;20058;-78
2021/06/13 06:42:08;;;;;;;10.52;3.42;;;;;;;19.72;50.38;102184.69;4838553;29;20053;-74
2021/06/13 06:44:36;;;;;;;9.48;3.00;;;;;;;19.68;50.42;102177.34;4838195;29;20380;-73
2021/06/13 06:47:03;;;;;;;8.73;3.03;;;;;;;19.82;50.02;102181.50;4838636;29;20405;-75
2021/06/13 06:49:31;;;;;;;9.93;3.60;;;;;;;19.66;50.22;102188.03;4900739;29;20487;-74
2021/06/13 06:52:00;;;;;;;11.05;3.55;;;;;;;19.63;50.12;102189.53;4839345;29;20054;-74
2021/06/13 06:54:27;;;;;;;12.43;3.55;;;;;;;19.74;50.28;102187.16;4838643;29;20402;-67
2021/06/13 06:56:54;;;;;;;9.50;3.33;;;;;;;19.52;50.16;102185.50;4838497;29;20386;-67
2021/06/13 06:59:22;;;;;;;9.68;3.42;;;;;;;19.32;50.69;102186.25;4838619;29;20061;-67
2021/06/13 07:01:49;;;;;;;10.75;3.20;;;;;;;19.45;50.26;102190.81;4884242;29;20065;-66
2021/06/13 07:04:17;;;;;;;7.82;2.97;;;;;;;19.54;49.81;102180.41;4838710;29;20061;-68
2021/06/13 07:06:44;;;;;;;7.40;2.97;;;;;;;19.50;49.91;102186.97;4839185;29;20050;-66
2021/06/13 07:09:11;;;;;;;8.35;3.15;;;;;;;19.62;49.98;102187.91;4838651;29;20054;-67
2021/06/13 07:11:39;;;;;;;8.50;3.20;;;;;;;19.58;49.33;102186.94;4838504;29;20062;-66
2021/06/13 07:14:06;;;;;;;7.65;3.00;;;;;;;19.81;49.19;102185.47;4836881;29;20069;-73
2021/06/13 07:16:34;;;;;;;9.45;3.40;;;;;;;19.66;49.26;102182.44;4837871;29;20054;-72
2021/06/13 07:19:02;;;;;;;8.77;3.25;;;;;;;19.73;48.50;102182.72;4821929;29;20506;-69
2021/06/13 07:26:00;;;;;;;6.80;2.72;;;;;;;19.64;47.95;102205.16;4874935;29;20053;-73
2021/06/13 07:28:29;;;;;;;7.70;2.88;;;;;;;19.97;47.38;102192.09;4859973;29;20061;-65
2021/06/13 07:30:57;;;;;;;11.50;3.05;;;;;;;20.00;47.00;102202.59;4874939;29;20045;-66
2021/06/13 07:33:26;;;;;;;11.00;5.28;;;;;;;20.28;45.79;102193.66;4875000;29;20061;-70
2021/06/13 07:40:18;;;;;;;5.53;2.30;;;;;;;20.73;43.88;102197.34;4848068;29;20066;-72
2021/06/13 07:42:49;;;;;;;8.75;2.38;;;;;;;20.92;42.58;102194.81;4837946;29;20057;-69
2021/06/13 07:45:16;;;;;;;4.90;2.10;;;;;;;21.14;42.56;102192.41;4900516;29;20517;-66
2021/06/13 07:47:44;;;;;;;6.65;2.58;;;;;;;21.27;41.99;102196.84;4836875;29;20367;-70
2021/06/13 07:50:14;;;;;;;6.60;2.55;;;;;;;21.25;42.29;102190.78;4837496;29;20073;-67
2021/06/13 07:52:42;;;;;;;9.48;3.00;;;;;;;20.92;42.73;102187.19;4837454;29;20065;-72
2021/06/13 07:55:11;;;;;;;6.90;2.30;;;;;;;21.00;42.96;102182.69;4835993;29;20054;-78
2021/06/13 07:57:40;;;;;;;6.90;2.30;;;;;;;21.51;41.96;102182.03;4899161;29;20058;-72
2021/06/13 08:00:10;;;;;;;8.82;2.90;;;;;;;21.61;41.61;102175.94;4836067;29;20498;-70
2021/06/13 08:02:44;;;;;;;10.60;3.30;;;;;;;22.18;40.73;102181.28;4837668;29;20058;-74
2021/06/13 08:05:15;;;;;;;9.35;4.72;;;;;;;22.27;40.37;102176.34;4837411;29;20054;-71
2021/06/13 08:07:42;;;;;;;8.60;3.88;;;;;;;22.04;40.77;102180.88;4837544;29;20065;-67
2021/06/13 08:10:11;;;;;;;7.13;2.53;;;;;;;22.28;40.37;102184.41;4838549;29;20456;-74
2021/06/13 08:12:38;;;;;;;7.35;2.38;;;;;;;22.17;40.37;102169.28;4836157;29;20394;-74
2021/06/13 08:15:07;;;;;;;5.45;2.28;;;;;;;21.87;40.34;102173.56;4840029;29;20050;-71
2021/06/13 08:17:35;;;;;;;7.93;2.15;;;;;;;21.38;41.51;102180.38;4841110;29;20058;-70
2021/06/13 08:20:05;;;;;;;5.90;2.13;;;;;;;21.32;42.01;102180.97;4839897;29;20192;-73
2021/06/13 08:22:33;;;;;;;6.50;2.38;;;;;;;21.47;42.02;102186.69;4840198;29;20069;-70
2021/06/13 08:25:01;;;;;;;6.97;2.30;;;;;;;21.29;41.19;102188.09;4840229;29;20519;-71
2021/06/13 08:27:28;;;;;;;8.73;2.20;;;;;;;21.34;41.55;102167.44;4840607;29;20054;-66
2021/06/13 08:29:57;;;;;;;6.45;2.30;;;;;;;21.24;41.62;102183.53;4840153;29;20050;-72
2021/06/13 08:32:27;;;;;;;7.00;2.20;;;;;;;21.49;41.59;102177.91;4839971;29;20490;-69
2021/06/13 08:34:55;;;;;;;7.53;1.93;;;;;;;21.43;41.46;102185.75;4841684;29;20058;-75
2021/06/13 08:37:22;;;;;;;6.88;2.30;;;;;;;21.21;41.71;102184.25;4887848;29;20806;-70
2021/06/13 08:39:50;;;;;;;6.80;1.92;;;;;;;21.71;43.36;102183.84;4840071;29;20050;-68
2021/06/13 08:42:18;;;;;;;7.03;2.05;;;;;;;21.75;40.98;102176.38;4840834;29;20517;-71
2021/06/13 08:44:46;;;;;;;6.70;2.20;;;;;;;21.81;41.61;102177.78;4839924;29;20153;-73
2021/06/13 08:47:17;;;;;;;9.55;2.30;;;;;;;21.69;42.07;102180.56;4839328;29;20062;-74
2021/06/13 08:49:46;;;;;;;9.13;2.47;;;;;;;21.90;42.25;102170.03;4838850;29;20427;-72
2021/06/13 08:56:41;;;;;;;7.88;2.33;;;;;;;21.88;41.46;102163.19;4839634;29;20054;-62
2021/06/13 08:59:10;;;;;;;9.27;2.83;;;;;;;21.65;41.24;102171.25;4839979;29;20061;-68
2021/06/13 09:01:38;;;;;;;5.95;2.13;;;;;;;21.44;41.02;102152.94;4839693;29;20062;-67
2021/06/13 09:04:06;;;;;;;6.57;2.05;;;;;;;21.65;41.71;102162.03;4840103;29;20046;-69
2021/06/13 09:11:03;;;;;;;4.85;2.05;;;;;;;21.96;40.26;102157.41;4840900;29;20053;-68
2021/06/13 09:13:32;;;;;;;8.45;2.30;;;;;;;21.90;40.29;102158.00;4842015;29;20062;-69
2021/06/13 09:16:01;;;;;;;5.97;2.00;;;;;;;21.79;40.58;102154.06;4904138;29;20081;-71
2021/06/13 09:18:41;;;;;;;11.27;2.23;;;;;;;21.73;39.92;102149.84;4824882;29;20053;-68
2021/06/13 09:25:40;;;;;;;4.78;2.22;;;;;;;21.90;40.42;102153.22;4839293;29;20053;-65
2021/06/13 09:28:16;;;;;;;5.40;1.95;;;;;;;22.07;39.96;102150.09;4839870;29;20058;-69
2021/06/13 09:30:47;;;;;;;6.13;2.20;;;;;;;22.03;40.16;102168.84;4839804;29;20065;-66
2021/06/13 09:33:30;;;;;;;4.90;1.90;;;;;;;21.68;39.99;102155.69;4839596;29;20053;-68
2021/06/13 09:36:04;;;;;;;17.05;5.85;;;;;;;21.69;40.43;102160.16;4839428;29;20058;-69
2021/06/13 09:38:45;;;;;;;21.35;6.28;;;;;;;21.88;40.27;102151.94;4886873;29;20175;-72
2021/06/13 09:41:15;;;;;;;;;;;;;;;21.97;39.64;102147.00;4839303;29;20050;-70
2021/06/13 09:43:50;;;;;;;11.63;2.65;;;;;;;22.09;39.77;102147.75;4840895;29;19925;-67
2021/06/13 09:46:23;;;;;;;9.02;2.65;;;;;;;22.15;40.29;102154.78;4839355;29;20062;-66
2021/06/13 09:48:54;;;;;;;8.88;2.67;;;;;;;21.90;40.06;102153.22;4838251;29;20046;-72
2021/06/13 09:51:25;;;;;;;9.48;2.55;;;;;;;21.70;40.79;102140.16;4836327;29;20054;-66
2021/06/13 09:53:55;;;;;;;7.78;2.20;;;;;;;21.77;40.08;102154.41;4838870;29;20058;-70
2021/06/13 09:56:27;;;;;;;6.78;2.00;;;;;;;21.93;39.99;102146.88;4838736;29;20058;-71
2021/06/13 09:59:13;;;;;;;8.52;3.03;;;;;;;21.81;39.53;102148.94;4837022;29;20058;-70
2021/06/13 10:01:51;;;;;;;8.73;4.05;;;;;;;21.75;40.67;102139.09;4839052;29;20383;-69
2021/06/13 10:04:22;;;;;;;7.43;2.90;;;;;;;21.79;40.94;102148.47;4839178;29;20401;-73
2021/06/13 10:06:54;;;;;;;4.85;2.00;;;;;;;21.71;41.12;102147.38;4837899;29;20057;-72
2021/06/13 10:09:23;;;;;;;8.88;2.83;;;;;;;21.61;41.59;102138.66;4839444;29;20490;-72
2021/06/13 10:12:03;;;;;;;6.78;2.60;;;;;;;21.94;40.91;102142.91;4838399;29;20061;-73
2021/06/13 10:14:31;;;;;;;5.78;2.00;;;;;;;21.83;40.71;102133.38;4838389;29;20057;-70
2021/06/13 10:16:58;;;;;;;10.45;2.97;;;;;;;21.98;40.16;102141.03;4837279;29;20057;-69
2021/06/13 10:19:28;;;;;;;8.63;2.10;;;;;;;22.02;40.33;102132.72;4838584;29;20054;-68
2021/06/13 10:22:01;;;;;;;9.97;2.37;;;;;;;22.01;40.17;102120.69;4838602;29;20141;-67
2021/06/13 10:24:41;;;;;;;6.00;1.83;;;;;;;22.11;39.95;102125.78;4838360;29;20066;-70
2021/06/13 10:27:13;;;;;;;5.72;2.03;;;;;;;22.29;38.89;102124.31;4901674;29;20058;-74
2021/06/13 10:29:58;;;;;;;5.65;2.03;;;;;;;22.28;39.41;102119.06;4838090;29;20058;-77
2021/06/13 10:32:26;;;;;;;6.53;2.00;;;;;;;22.13;39.62;102115.00;4885182;29;20054;-71
2021/06/13 10:34:55;;;;;;;10.40;2.50;;;;;;;22.08;40.47;102109.66;4838315;29;20050;-67
2021/06/13 10:37:23;;;;;;;9.07;2.33;;;;;;;22.40;40.10;102107.75;4837236;29;20057;-70
2021/06/13 10:39:50;;;;;;;6.80;2.20;;;;;;;22.30;39.68;102109.06;4838551;29;20491;-63
2021/06/13 10:42:18;;;;;;;8.52;2.20;;;;;;;22.20;39.59;102109.59;4822598;29;20053;-65
2021/06/13 10:44:49;;;;;;;8.10;2.47;;;;;;;22.35;38.78;102099.59;4901999;29;20478;-68
2021/06/13 10:47:17;;;;;;;9.02;2.30;;;;;;;22.32;38.94;102103.09;4839753;29;20054;-72
2021/06/13 10:49:47;;;;;;;7.50;2.35;;;;;;;22.35;39.27;102106.00;4839582;29;20497;-70
2021/06/13 10:52:20;;;;;;;7.07;2.28;;;;;;;22.53;39.29;102103.69;4837687;29;20463;-70
2021/06/13 10:54:53;;;;;;;6.35;2.25;;;;;;;22.51;38.69;102105.22;4838221;29;20062;-72
2021/06/13 10:57:24;;;;;;;8.15;2.13;;;;;;;22.11;39.92;102096.88;4821322;29;20418;-72
2021/06/13 10:59:56;;;;;;;7.35;2.38;;;;;;;22.34;39.49;102083.91;4837939;29;20053;-72
2021/06/13 11:02:49;;;;;;;6.70;2.40;;;;;;;22.42;39.22;102096.16;4837946;29;20066;-74
2021/06/13 11:05:52;;;;;;;5.65;2.20;;;;;;;22.09;38.76;102077.59;4836535;29;20054;-68
2021/06/13 11:08:19;;;;;;;7.05;2.20;;;;;;;22.31;38.64;102087.44;4892959;29;20053;-70
2021/06/13 11:10:47;;;;;;;5.85;2.55;;;;;;;22.45;38.19;102072.97;4893806;29;20402;-68
2021/06/13 11:13:22;;;;;;;6.28;2.10;;;;;;;22.64;38.05;102087.97;4894265;29;20041;-67
2021/06/13 11:15:51;;;;;;;5.40;2.20;;;;;;;22.80;36.72;102082.34;4894037;29;20173;-66
2021/06/13 11:18:26;;;;;;;7.97;1.80;;;;;;;22.88;37.46;102079.34;4893576;29;20060;-67
2021/06/13 11:21:23;;;;;;;8.48;2.42;;;;;;;23.02;37.41;102081.69;4897139;29;20053;-68
2021/06/13 11:23:52;;;;;;;8.05;2.78;;;;;;;22.92;36.76;102071.81;4843442;29;20066;-75
2021/06/13 11:26:36;;;;;;;8.70;3.03;;;;;;;23.29;36.71;102075.13;4841162;29;20062;-76
2021/06/13 11:29:05;;;;;;;6.95;1.77;;;;;;;23.23;36.36;102074.56;4825658;29;20058;-67
2021/06/13 11:31:32;;;;;;;6.05;2.08;;;;;;;23.11;36.43;102065.44;4839420;29;20050;-70
2021/06/13 11:34:02;;;;;;;7.65;2.00;;;;;;;23.12;36.79;102069.88;4824272;29;20054;-73
2021/06/13 11:36:39;;;;;;;5.25;2.10;;;;;;;23.39;36.52;102060.50;4823321;29;20054;-67
2021/06/13 11:39:06;;;;;;;5.90;2.00;;;;;;;23.53;36.15;102060.00;4807630;29;20058;-67
2021/06/13 11:41:35;;;;;;;10.93;2.20;;;;;;;23.22;36.70;102061.69;4815935;29;20538;-70
2021/06/13 11:44:08;;;;;;;6.07;1.92;;;;;;;23.24;35.99;102078.22;4782746;29;20059;-72
2021/06/13 11:46:39;;;;;;;7.53;2.47;;;;;;;23.08;36.56;102063.38;4781433;30;20059;-72
2021/06/13 11:49:17;;;;;;;7.22;2.15;;;;;;;23.15;35.75;102050.28;4783270;30;20439;-71
2021/06/13 11:56:00;;;;;;;4.22;1.73;;;;;;;23.47;34.94;102045.41;4783224;30;20480;-68
2021/06/13 11:58:32;;;;;;;5.65;2.00;;;;;;;23.42;34.55;102054.13;4783367;30;20099;-69
2021/06/13 12:01:02;;;;;;;9.00;2.08;;;;;;;23.64;34.29;102036.53;4840722;29;20065;-65
2021/06/13 12:03:31;;;;;;;5.53;1.98;;;;;;;23.63;33.71;102046.16;4840695;29;20054;-67
2021/06/13 12:06:03;;;;;;;7.85;2.30;;;;;;;23.62;34.03;102036.09;4838566;29;20054;-66
2021/06/13 12:13:09;;;;;;;6.78;2.00;;;;;;;23.91;33.21;102017.78;4857833;29;20049;-69
2021/06/13 12:15:37;;;;;;;6.75;1.65;;;;;;;23.96;32.75;102009.84;4826549;29;20060;-71
2021/06/13 12:18:15;;;;;;;5.57;2.03;;;;;;;23.88;32.85;102010.91;4858532;29;20045;-67
2021/06/13 12:20:43;;;;;;;4.82;1.70;;;;;;;23.83;32.66;101999.97;4841707;29;20497;-67
2021/06/13 12:27:47;;;;;;;8.70;1.80;;;;;;;23.87;32.31;101994.41;4857887;29;20061;-70
2021/06/13 12:30:26;;;;;;;5.35;1.75;;;;;;;24.21;31.73;101994.28;4858733;29;20073;-65
2021/06/13 12:32:57;;;;;;;15.52;2.45;;;;;;;24.26;32.00;101991.13;4858083;29;20049;-71
2021/06/13 12:35:35;;;;;;;4.65;1.88;;;;;;;24.59;31.37;101987.66;4858751;29;20062;-71
2021/06/13 12:42:26;;;;;;;4.32;1.80;;;;;;;24.53;30.96;101983.53;4857919;29;20046;-62
2021/06/13 12:45:13;;;;;;;3.25;1.80;;;;;;;24.77;30.66;101976.72;4857634;29;20057;-67
2021/06/13 12:47:42;;;;;;;6.78;1.83;;;;;;;24.97;31.17;101969.75;4841020;29;20497;-67
2021/06/13 12:50:20;;;;;;;5.05;1.67;;;;;;;24.97;30.83;101967.75;4856681;29;20066;-63
2021/06/13 12:57:11;;;;;;;5.15;1.92;;;;;;;24.75;30.90;101948.91;4858502;29;20049;-69
2021/06/13 12:59:38;;;;;;;6.78;2.05;;;;;;;24.75;31.29;101950.91;4856612;29;20406;-65
2021/06/13 13:02:08;;;;;;;4.13;1.73;;;;;;;24.71;31.47;101955.66;4840740;29;20052;-71
2021/06/13 13:04:54;;;;;;;6.18;1.80;;;;;;;24.40;31.50;101945.50;4858304;29;20374;-68
2021/06/13 13:07:29;;;;;;;4.35;1.63;;;;;;;24.80;30.81;101950.56;4840535;29;20524;-66
2021/06/13 13:14:29;;;;;;;5.13;1.90;;;;;;;25.13;29.37;101956.28;4857956;29;20042;-74
2021/06/13 13:16:56;;;;;;;5.07;1.65;;;;;;;25.17;27.80;101949.50;4858871;29;20150;-70
2021/06/13 13:19:31;;;;;;;4.28;1.40;;;;;;;24.98;30.54;101949.66;4842107;29;20490;-69
2021/06/13 13:22:17;;;;;;;4.82;1.60;;;;;;;24.58;31.03;101951.41;4856463;29;20049;-66
2021/06/13 13:29:12;;;;;;;4.32;1.88;;;;;;;24.95;30.71;101950.41;4840894;29;20049;-68
2021/06/13 13:31:39;;;;;;;5.80;1.60;;;;;;;24.95;30.77;101944.75;4857741;29;20053;-72
2021/06/13 13:34:10;;;;;;;5.47;1.92;;;;;;;25.12;30.71;101934.94;4841423;29;20054;-70
2021/06/13 13:36:39;;;;;;;6.93;1.70;;;;;;;25.17;30.19;101932.59;4841562;29;20057;-68